Time;durP1;ratioP1;P1;durP2;ratioP2;P2;SDS_P1;SDS_P2;PMS_P1;PMS_P2;Temp;Humidity;BMP_temperature;BMP_pressure;BME280_temperature;BME280_humidity;BME280_pressure;Samples;Min_cycle;Max_cycle;Signal;HPM_P1;HPM_P2
2023/01/31 00:01:55;;;;;;;16.00;2.93;;;4.00;99.90;;;;;;5033117;28;21019;-60
2023/01/31 00:04:25;;;;;;;21.97;3.63;;;4.00;99.90;;;;;;5034703;28;20997;-60
2023/01/31 00:06:53;;;;;;;18.70;3.23;;;4.10;99.90;;;;;;5045146;28;20478;-59
2023/01/31 00:09:21;;;;;;;20.53;3.13;;;4.10;99.90;;;;;;5044058;28;20471;-59
2023/01/31 00:11:49;;;;;;;21.03;3.17;;;4.10;99.90;;;;;;5031719;28;20464;-59
2023/01/31 00:14:19;;;;;;;13.43;2.57;;;4.10;99.90;;;;;;5033653;28;20835;-59
2023/01/31 00:16:47;;;;;;;13.87;3.53;;;4.10;99.90;;;;;;5033663;28;20474;-59
2023/01/31 00:19:15;;;;;;;19.43;2.93;;;4.00;99.90;;;;;;5033492;28;20455;-59
2023/01/31 00:21:44;;;;;;;15.23;2.57;;;4.00;99.90;;;;;;5033565;28;20494;-59
2023/01/31 00:24:13;;;;;;;15.90;2.50;;;3.90;99.90;;;;;;5033257;28;20491;-59
2023/01/31 00:26:41;;;;;;;12.90;2.60;;;4.00;99.90;;;;;;5033172;28;20469;-60
2023/01/31 00:29:10;;;;;;;14.97;3.47;;;3.90;99.90;;;;;;5033243;28;20485;-59
2023/01/31 00:31:38;;;;;;;14.63;2.60;;;3.90;99.90;;;;;;5031303;28;20995;-60
2023/01/31 00:34:07;;;;;;;15.93;2.63;;;3.80;99.90;;;;;;5031840;28;20470;-59
2023/01/31 00:36:35;;;;;;;20.50;2.90;;;3.80;99.90;;;;;;5043413;28;20470;-59
2023/01/31 00:39:07;;;;;;;16.70;2.67;;;3.70;99.90;;;;;;5046577;28;20478;-59
2023/01/31 00:41:37;;;;;;;17.40;2.90;;;3.70;99.90;;;;;;5032796;28;20852;-59
2023/01/31 00:44:07;;;;;;;13.80;2.97;;;3.70;99.90;;;;;;5033040;28;20482;-59
2023/01/31 00:46:35;;;;;;;16.50;3.20;;;3.80;99.90;;;;;;5031596;28;20550;-59
2023/01/31 00:49:04;;;;;;;14.53;2.70;;;3.80;99.90;;;;;;5033298;28;20487;-59
2023/01/31 00:51:32;;;;;;;15.20;2.57;;;3.80;99.90;;;;;;5032774;28;20466;-59
2023/01/31 00:54:01;;;;;;;21.77;3.37;;;3.90;99.90;;;;;;5022689;28;20464;-59
2023/01/31 00:56:31;;;;;;;18.27;3.13;;;3.90;99.90;;;;;;5012951;28;20828;-59
2023/01/31 00:58:59;;;;;;;14.63;2.50;;;3.90;99.90;;;;;;5012075;28;20482;-59
2023/01/31 01:01:29;;;;;;;16.60;2.50;;;3.90;99.90;;;;;;5017634;28;20477;-60
2023/01/31 01:03:57;;;;;;;15.23;3.37;;;3.90;99.90;;;;;;5032598;28;20502;-59
2023/01/31 01:06:26;;;;;;;16.50;3.07;;;3.90;99.90;;;;;;5040961;28;20458;-60
2023/01/31 01:08:56;;;;;;;16.70;2.83;;;4.00;99.90;;;;;;5044891;28;20483;-59
2023/01/31 01:11:26;;;;;;;24.37;3.40;;;4.00;99.90;;;;;;5032500;28;20477;-60
2023/01/31 01:13:56;;;;;;;15.10;2.60;;;4.00;99.90;;;;;;5032704;28;20542;-59
2023/01/31 01:16:34;;;;;;;15.67;3.00;;;4.10;99.90;;;;;;5031215;28;20473;-60
2023/01/31 01:19:04;;;;;;;15.43;2.47;;;4.10;99.90;;;;;;5031357;28;20478;-60
2023/01/31 01:21:37;;;;;;;15.20;2.60;;;4.10;99.90;;;;;;5032315;28;20471;-59
2023/01/31 01:24:08;;;;;;;14.00;2.40;;;4.10;99.90;;;;;;5031936;28;20840;-59
2023/01/31 01:26:38;;;;;;;12.53;2.70;;;4.10;99.90;;;;;;5031007;28;20471;-59
2023/01/31 01:29:08;;;;;;;11.37;2.20;;;4.10;99.90;;;;;;5031276;28;20478;-60
2023/01/31 01:31:38;;;;;;;15.67;2.83;;;4.10;99.90;;;;;;5031783;28;21036;-59
2023/01/31 01:34:11;;;;;;;13.27;2.90;;;4.10;99.90;;;;;;5031114;28;20467;-60
2023/01/31 01:36:39;;;;;;;15.33;2.63;;;4.10;99.90;;;;;;5042650;28;20991;-59
2023/01/31 01:39:10;;;;;;;9.37;2.13;;;4.10;99.90;;;;;;5044620;28;20501;-60
2023/01/31 01:41:40;;;;;;;9.60;2.07;;;4.10;99.90;;;;;;5033357;28;20497;-59
2023/01/31 01:44:47;;;;;;;13.53;2.50;;;4.00;99.90;;;;;;5031046;28;20479;-59
2023/01/31 01:47:31;;;;;;;10.83;2.33;;;3.90;99.90;;;;;;5017565;28;20481;-59
2023/01/31 01:50:02;;;;;;;12.87;1.90;;;3.90;99.90;;;;;;5032335;28;20458;-59
2023/01/31 01:52:35;;;;;;;10.13;2.03;;;3.90;99.90;;;;;;5030844;28;20579;-59
2023/01/31 01:55:10;;;;;;;12.40;2.37;;;3.90;99.90;;;;;;5011342;28;20463;-60
2023/01/31 01:57:43;;;;;;;10.63;2.57;;;3.90;99.90;;;;;;5012394;28;20565;-59
2023/01/31 02:00:16;;;;;;;12.77;2.70;;;3.90;99.90;;;;;;5012418;28;21038;-60
2023/01/31 02:02:47;;;;;;;10.77;2.43;;;3.90;99.90;;;;;;5029810;28;20894;-60
2023/01/31 02:05:21;;;;;;;14.97;2.50;;;3.90;99.90;;;;;;5039960;28;20510;-59
2023/01/31 02:07:49;;;;;;;13.53;1.93;;;4.00;99.90;;;;;;5043846;28;20987;-60
2023/01/31 02:10:24;;;;;;;10.77;2.10;;;4.10;99.90;;;;;;5033903;28;20841;-60
2023/01/31 02:12:53;;;;;;;10.00;1.97;;;4.00;99.90;;;;;;5032842;28;21044;-59
2023/01/31 02:15:21;;;;;;;14.60;2.77;;;4.10;99.90;;;;;;5051159;28;20467;-60
2023/01/31 02:17:52;;;;;;;14.03;2.53;;;4.10;99.90;;;;;;5027387;28;20475;-60
2023/01/31 02:20:55;;;;;;;12.07;2.20;;;4.10;99.90;;;;;;5014743;28;20475;-59
2023/01/31 02:23:56;;;;;;;10.93;2.43;;;4.10;99.90;;;;;;5014582;28;20471;-59
2023/01/31 02:27:02;;;;;;;15.23;2.60;;;4.00;99.90;;;;;;5015844;28;20464;-59
2023/01/31 02:30:00;;;;;;;12.63;3.17;;;4.00;99.90;;;;;;5014391;28;20915;-59
2023/01/31 02:32:56;;;;;;;17.13;2.60;;;4.00;99.90;;;;;;5029228;28;20482;-59
2023/01/31 02:35:37;;;;;;;14.07;2.53;;;4.00;99.90;;;;;;5028752;28;20484;-60
2023/01/31 02:38:16;;;;;;;15.37;3.17;;;3.90;99.90;;;;;;5045755;28;20509;-60
2023/01/31 02:40:50;;;;;;;10.40;2.80;;;4.00;99.90;;;;;;5033532;28;20512;-59
2023/01/31 02:43:23;;;;;;;14.97;3.03;;;4.00;99.90;;;;;;5034043;28;20484;-59
2023/01/31 02:46:00;;;;;;;14.43;3.03;;;4.00;99.90;;;;;;5035455;28;20585;-60
2023/01/31 02:48:41;;;;;;;15.10;2.67;;;3.90;99.90;;;;;;5063338;28;20870;-60
2023/01/31 02:51:15;;;;;;;13.37;2.80;;;3.80;99.90;;;;;;5047399;28;20462;-60
2023/01/31 02:53:50;;;;;;;18.30;3.00;;;3.80;99.90;;;;;;5013873;28;20470;-60
2023/01/31 02:56:23;;;;;;;19.03;2.77;;;3.70;99.90;;;;;;5014059;28;20504;-59
2023/01/31 02:58:56;;;;;;;22.57;3.47;;;3.80;99.90;;;;;;5013915;28;20550;-60
2023/01/31 03:01:29;;;;;;;13.30;3.10;;;3.90;99.90;;;;;;5021502;28;20481;-59
2023/01/31 03:04:03;;;;;;;12.57;2.60;;;3.90;99.90;;;;;;5052796;28;20466;-59
2023/01/31 03:07:02;;;;;;;17.50;2.97;;;3.80;99.90;;;;;;5042900;28;20500;-60
2023/01/31 03:09:39;;;;;;;12.83;2.17;;;3.70;99.90;;;;;;5020066;28;20477;-59
2023/01/31 03:12:23;;;;;;;15.77;3.10;;;3.70;99.90;;;;;;5033403;28;20501;-59
2023/01/31 03:15:06;;;;;;;14.00;2.67;;;3.80;99.90;;;;;;5033420;28;20463;-59
2023/01/31 03:17:42;;;;;;;15.33;3.70;;;3.80;99.90;;;;;;5033278;28;20463;-60
2023/01/31 03:20:18;;;;;;;18.57;3.23;;;3.90;99.90;;;;;;5034626;28;20465;-59
2023/01/31 03:22:50;;;;;;;13.23;2.57;;;3.90;99.90;;;;;;5034728;28;21010;-59
2023/01/31 03:25:22;;;;;;;17.00;3.07;;;4.00;99.90;;;;;;5032527;28;20863;-59
2023/01/31 03:27:59;;;;;;;17.47;2.87;;;4.10;99.90;;;;;;5033229;28;20470;-59
2023/01/31 03:30:34;;;;;;;15.43;2.60;;;4.10;99.90;;;;;;5031808;28;20465;-59
2023/01/31 03:33:09;;;;;;;18.17;2.83;;;4.10;99.90;;;;;;5033778;28;20817;-59
2023/01/31 03:35:41;;;;;;;14.67;3.03;;;4.10;99.90;;;;;;5043654;28;21066;-59
2023/01/31 03:38:15;;;;;;;15.77;2.13;;;4.10;99.90;;;;;;5021639;28;20563;-59
2023/01/31 03:40:49;;;;;;;14.63;2.60;;;4.10;99.90;;;;;;5032056;28;20470;-59
2023/01/31 03:43:22;;;;;;;17.73;3.40;;;4.10;99.90;;;;;;5013197;28;20899;-59
2023/01/31 03:46:00;;;;;;;17.40;3.10;;;4.10;99.90;;;;;;5012995;28;20527;-59
2023/01/31 03:48:32;;;;;;;14.80;2.87;;;4.10;99.90;;;;;;5012862;28;20996;-59
2023/01/31 03:51:07;;;;;;;10.23;2.10;;;4.00;99.90;;;;;;5026152;28;20561;-59
2023/01/31 03:53:41;;;;;;;18.50;2.63;;;4.00;99.90;;;;;;5032597;28;20477;-59
2023/01/31 03:56:14;;;;;;;15.47;3.30;;;4.00;99.90;;;;;;5032658;28;20508;-59
2023/01/31 03:58:49;;;;;;;17.17;2.67;;;4.00;99.90;;;;;;5032472;28;20871;-60
2023/01/31 04:01:19;;;;;;;17.77;2.93;;;4.00;99.90;;;;;;5027517;28;20479;-59
2023/01/31 04:03:51;;;;;;;14.57;2.93;;;4.00;99.90;;;;;;5032221;28;20866;-60
2023/01/31 04:06:21;;;;;;;15.17;3.30;;;4.00;99.90;;;;;;5044004;28;20583;-59
2023/01/31 04:08:50;;;;;;;18.20;2.53;;;4.00;99.90;;;;;;5045802;28;20464;-59
2023/01/31 04:11:21;;;;;;;16.20;2.77;;;4.00;99.90;;;;;;5033524;28;20541;-60
2023/01/31 04:13:49;;;;;;;13.93;2.10;;;3.90;99.90;;;;;;5033499;28;20819;-60
2023/01/31 04:16:17;;;;;;;16.23;2.87;;;4.00;99.90;;;;;;5033898;28;20512;-59
2023/01/31 04:18:45;;;;;;;15.23;2.37;;;4.00;99.90;;;;;;5033293;28;20465;-59
2023/01/31 04:21:14;;;;;;;9.57;2.03;;;4.00;99.90;;;;;;5033755;28;20482;-59
2023/01/31 04:23:43;;;;;;;16.13;2.63;;;4.00;99.90;;;;;;5018640;28;20483;-60
2023/01/31 04:26:11;;;;;;;16.30;2.87;;;4.00;99.90;;;;;;5013868;28;20510;-59
2023/01/31 04:28:39;;;;;;;13.47;2.33;;;4.00;99.90;;;;;;5013660;28;20475;-59
2023/01/31 04:31:07;;;;;;;15.40;2.50;;;4.00;99.90;;;;;;5028547;28;20486;-60
2023/01/31 04:33:36;;;;;;;15.90;2.63;;;4.10;99.90;;;;;;5032892;28;20520;-59
2023/01/31 04:36:05;;;;;;;11.70;2.37;;;4.10;99.90;;;;;;5044326;28;20465;-59
2023/01/31 04:38:33;;;;;;;7.43;2.03;;;4.10;99.90;;;;;;5045049;28;20980;-59
2023/01/31 04:41:02;;;;;;;15.43;2.80;;;4.10;99.90;;;;;;5033177;28;20235;-59
2023/01/31 04:43:30;;;;;;;13.47;3.00;;;4.10;99.90;;;;;;5033148;28;20471;-60
2023/01/31 04:45:58;;;;;;;14.03;2.30;;;4.10;99.90;;;;;;5033245;28;20497;-59
2023/01/31 04:48:26;;;;;;;13.67;2.17;;;4.10;99.90;;;;;;5032770;28;20506;-60
2023/01/31 04:50:56;;;;;;;15.17;2.23;;;4.20;99.90;;;;;;5033209;28;20469;-60
2023/01/31 04:53:25;;;;;;;11.97;2.60;;;4.20;99.90;;;;;;5032812;28;20479;-60
2023/01/31 04:55:54;;;;;;;13.77;2.80;;;4.20;99.90;;;;;;5032993;28;21059;-59
2023/01/31 04:58:23;;;;;;;16.13;3.07;;;4.20;99.90;;;;;;5032818;28;20463;-59
2023/01/31 05:00:54;;;;;;;14.30;2.47;;;4.20;99.90;;;;;;5021127;28;20844;-59
2023/01/31 05:03:22;;;;;;;11.70;2.67;;;4.30;99.90;;;;;;5032252;28;20482;-60
2023/01/31 05:05:50;;;;;;;16.23;2.80;;;4.20;99.90;;;;;;5037380;28;21010;-60
2023/01/31 05:08:18;;;;;;;12.23;2.30;;;4.30;99.90;;;;;;5045733;28;20473;-59
2023/01/31 05:10:47;;;;;;;18.50;2.80;;;4.20;99.90;;;;;;5032897;28;20481;-60
2023/01/31 05:13:15;;;;;;;16.60;2.60;;;4.20;99.90;;;;;;5032705;28;20468;-60
2023/01/31 05:15:48;;;;;;;22.10;2.57;;;4.20;99.90;;;;;;5029835;28;20953;-60
2023/01/31 05:18:16;;;;;;;17.63;3.00;;;4.30;99.90;;;;;;5029129;28;20850;-59
2023/01/31 05:20:44;;;;;;;18.40;3.30;;;4.30;99.90;;;;;;5032449;28;20459;-60
2023/01/31 05:23:13;;;;;;;18.40;3.23;;;4.30;99.90;;;;;;5032864;28;20467;-60
2023/01/31 05:25:41;;;;;;;19.13;2.83;;;4.30;99.90;;;;;;5032302;28;20459;-59
2023/01/31 05:28:09;;;;;;;17.27;3.53;;;4.30;99.90;;;;;;5032823;28;20969;-60
2023/01/31 05:30:38;;;;;;;20.30;3.63;;;4.20;99.90;;;;;;5031967;28;20473;-60
2023/01/31 05:33:07;;;;;;;13.97;2.83;;;4.20;99.90;;;;;;5032631;28;20510;-59
2023/01/31 05:35:36;;;;;;;21.17;3.10;;;4.20;99.90;;;;;;5043154;28;20471;-59
2023/01/31 05:38:04;;;;;;;19.00;2.87;;;4.30;99.90;;;;;;5043980;28;20468;-59
2023/01/31 05:40:32;;;;;;;21.37;3.47;;;4.20;99.90;;;;;;5034223;28;20475;-59
2023/01/31 05:43:00;;;;;;;23.27;3.77;;;4.30;99.90;;;;;;5032368;28;20467;-59
2023/01/31 05:45:29;;;;;;;18.93;2.90;;;4.20;99.90;;;;;;5032088;28;20529;-60
2023/01/31 05:47:58;;;;;;;15.53;2.73;;;4.30;99.90;;;;;;5029055;28;20495;-60
2023/01/31 05:50:28;;;;;;;19.97;2.70;;;4.30;99.90;;;;;;5038237;28;20972;-59
2023/01/31 05:52:58;;;;;;;16.77;3.30;;;4.30;99.90;;;;;;5034331;28;20867;-59
2023/01/31 05:55:27;;;;;;;28.13;3.77;;;4.30;99.90;;;;;;5019165;28;20468;-59
2023/01/31 05:57:55;;;;;;;18.30;3.23;;;4.30;99.90;;;;;;5016698;28;20469;-59
2023/01/31 06:00:24;;;;;;;17.83;2.87;;;4.30;99.90;;;;;;5016136;28;20526;-60
2023/01/31 06:02:52;;;;;;;12.53;2.53;;;4.40;99.90;;;;;;5034915;28;20839;-59
2023/01/31 06:05:20;;;;;;;13.70;3.03;;;4.40;99.90;;;;;;5041202;28;20466;-59
2023/01/31 06:07:51;;;;;;;21.57;3.30;;;4.40;99.90;;;;;;5047691;28;20520;-60
2023/01/31 06:10:19;;;;;;;20.47;3.03;;;4.40;99.90;;;;;;5039499;28;20972;-60
2023/01/31 06:12:48;;;;;;;16.77;2.87;;;4.40;99.90;;;;;;5032098;28;20462;-60
2023/01/31 06:15:16;;;;;;;18.87;3.03;;;4.40;99.90;;;;;;5022592;28;20509;-59
2023/01/31 06:17:45;;;;;;;24.27;3.63;;;4.50;99.90;;;;;;5030631;28;20478;-59
2023/01/31 06:20:13;;;;;;;16.03;2.83;;;4.50;99.90;;;;;;5042886;28;20460;-59
2023/01/31 06:22:42;;;;;;;15.97;2.97;;;4.50;99.90;;;;;;5030868;28;21236;-59
2023/01/31 06:25:11;;;;;;;11.27;2.07;;;4.50;99.90;;;;;;5041260;28;20526;-59
2023/01/31 06:27:39;;;;;;;25.17;3.47;;;4.50;99.90;;;;;;5049323;28;20490;-59
2023/01/31 06:30:09;;;;;;;16.43;2.50;;;4.50;99.90;;;;;;5035853;28;20459;-59
2023/01/31 06:32:37;;;;;;;17.57;3.27;;;4.50;99.90;;;;;;5035283;28;20482;-59
2023/01/31 06:35:06;;;;;;;19.33;2.90;;;4.50;99.90;;;;;;5032666;28;20610;-60
2023/01/31 06:37:34;;;;;;;16.73;2.60;;;4.50;99.90;;;;;;5029116;28;20981;-60
2023/01/31 06:40:02;;;;;;;16.03;2.90;;;4.50;99.90;;;;;;5026005;28;20710;-59
2023/01/31 06:42:32;;;;;;;13.47;3.47;;;4.50;99.90;;;;;;5034506;28;20479;-60
2023/01/31 06:45:00;;;;;;;20.00;3.07;;;4.50;99.90;;;;;;5040835;28;20465;-60
2023/01/31 06:47:29;;;;;;;20.07;3.07;;;4.50;99.90;;;;;;5050835;28;20490;-60
2023/01/31 06:49:57;;;;;;;26.17;3.70;;;4.50;99.90;;;;;;5051242;28;20467;-59
2023/01/31 06:52:25;;;;;;;21.73;3.27;;;4.50;99.90;;;;;;5052461;28;20985;-60
2023/01/31 06:54:53;;;;;;;19.03;2.87;;;4.50;99.90;;;;;;5028995;28;20835;-59
2023/01/31 06:57:22;;;;;;;15.30;2.93;;;4.50;99.90;;;;;;5048431;28;20476;-59
2023/01/31 06:59:51;;;;;;;16.33;2.97;;;4.40;99.90;;;;;;5052156;28;20883;-59
2023/01/31 07:02:20;;;;;;;16.80;2.97;;;4.40;99.90;;;;;;5047490;28;20533;-59
2023/01/31 07:04:48;;;;;;;17.20;3.93;;;4.50;99.90;;;;;;5040351;28;20828;-59
2023/01/31 07:07:16;;;;;;;18.33;3.20;;;4.40;99.90;;;;;;5040365;28;20994;-60
2023/01/31 07:09:44;;;;;;;14.53;3.13;;;4.50;99.90;;;;;;5040539;28;20486;-60
2023/01/31 07:12:12;;;;;;;20.43;4.00;;;4.50;99.90;;;;;;5054863;28;20484;-60
2023/01/31 07:14:41;;;;;;;13.50;2.90;;;4.40;99.90;;;;;;5047674;28;20470;-59
2023/01/31 07:17:10;;;;;;;16.07;3.37;;;4.50;99.90;;;;;;5054801;28;20461;-60
2023/01/31 07:19:38;;;;;;;17.77;3.67;;;4.40;99.90;;;;;;5037369;28;20478;-60
2023/01/31 07:22:06;;;;;;;15.87;3.40;;;4.50;99.90;;;;;;5046090;28;20474;-59
2023/01/31 07:24:34;;;;;;;18.07;4.03;;;4.50;99.90;;;;;;5044775;28;20460;-59
2023/01/31 07:27:02;;;;;;;23.43;4.43;;;4.50;99.90;;;;;;5054162;28;20483;-59
2023/01/31 07:29:30;;;;;;;20.50;4.87;;;4.60;99.90;;;;;;5049905;28;20460;-59
2023/01/31 07:31:59;;;;;;;17.00;4.73;;;4.60;99.90;;;;;;5047801;28;20487;-59
2023/01/31 07:34:28;;;;;;;17.90;4.80;;;4.50;99.90;;;;;;5052704;28;20476;-60
2023/01/31 07:36:57;;;;;;;23.73;5.03;;;4.60;99.90;;;;;;5052169;28;20466;-59
2023/01/31 07:39:25;;;;;;;15.30;4.50;;;4.60;99.90;;;;;;5037968;28;20471;-60
2023/01/31 07:41:53;;;;;;;18.53;5.80;;;4.60;99.90;;;;;;5053907;28;20921;-60
2023/01/31 07:44:24;;;;;;;24.23;5.70;;;4.60;99.90;;;;;;5052499;28;20469;-60
2023/01/31 07:46:53;;;;;;;21.87;4.90;;;4.60;99.90;;;;;;5054082;28;20474;-60
2023/01/31 07:49:21;;;;;;;19.33;4.97;;;4.70;99.90;;;;;;5042264;28;20454;-59
2023/01/31 07:51:51;;;;;;;28.77;6.90;;;4.70;99.90;;;;;;5052966;28;20477;-59
2023/01/31 07:54:19;;;;;;;21.73;6.33;;;4.70;99.90;;;;;;5042609;28;20473;-59
2023/01/31 07:56:47;;;;;;;19.07;5.40;;;4.70;99.90;;;;;;5053774;28;20460;-59
2023/01/31 07:59:16;;;;;;;18.77;5.40;;;4.70;99.90;;;;;;5046948;28;21026;-59
2023/01/31 08:04:30;;;;;;;21.03;5.33;;;4.70;99.90;;;;;;5050975;28;20475;-59
2023/01/31 08:07:01;;;;;;;25.80;6.37;;;4.70;99.90;;;;;;5037530;28;20877;-59
2023/01/31 08:09:30;;;;;;;15.63;6.10;;;4.70;99.90;;;;;;5035109;28;20465;-59
2023/01/31 08:11:59;;;;;;;16.17;5.67;;;4.70;99.90;;;;;;5053454;28;20565;-60
2023/01/31 08:14:27;;;;;;;26.37;6.40;;;4.80;99.90;;;;;;5043275;28;20462;-59
2023/01/31 08:16:55;;;;;;;21.03;5.67;;;4.70;99.90;;;;;;5037202;28;20550;-59
2023/01/31 08:19:23;;;;;;;17.23;6.33;;;4.80;99.90;;;;;;5043441;28;20462;-59
2023/01/31 08:21:51;;;;;;;21.17;6.13;;;4.90;99.90;;;;;;5052992;28;20487;-59
2023/01/31 08:24:21;;;;;;;17.33;4.83;;;4.90;99.90;;;;;;5041040;28;20480;-59
2023/01/31 08:26:49;;;;;;;19.10;5.37;;;4.90;99.90;;;;;;5053053;28;20512;-60
2023/01/31 08:29:17;;;;;;;17.87;6.27;;;4.90;99.90;;;;;;5051249;28;20492;-59
2023/01/31 08:31:45;;;;;;;20.63;5.63;;;4.90;99.90;;;;;;5050646;28;20477;-60
2023/01/31 08:34:13;;;;;;;19.47;5.87;;;4.90;99.90;;;;;;5042452;28;20469;-59
2023/01/31 08:36:43;;;;;;;21.50;6.17;;;4.90;99.90;;;;;;5052787;28;20815;-59
2023/01/31 08:39:11;;;;;;;17.23;5.93;;;5.00;99.90;;;;;;5036816;28;20561;-59
2023/01/31 08:41:40;;;;;;;17.07;5.50;;;5.00;99.90;;;;;;5052981;28;20471;-59
2023/01/31 08:44:08;;;;;;;21.70;5.80;;;5.00;99.90;;;;;;5037975;28;20485;-60
2023/01/31 08:46:37;;;;;;;17.97;5.50;;;5.00;99.90;;;;;;5052590;28;20465;-60
2023/01/31 08:49:07;;;;;;;25.30;7.23;;;5.00;99.90;;;;;;5045437;28;20840;-60
2023/01/31 08:51:35;;;;;;;16.37;5.73;;;5.00;99.90;;;;;;5052852;28;20983;-59
2023/01/31 08:54:03;;;;;;;17.70;5.67;;;5.10;99.90;;;;;;5051042;28;20469;-60
2023/01/31 08:56:31;;;;;;;25.20;6.40;;;5.10;99.90;;;;;;5052431;28;20466;-59
2023/01/31 08:59:02;;;;;;;21.43;5.70;;;5.00;99.90;;;;;;5046787;28;20561;-60
2023/01/31 09:01:31;;;;;;;22.57;6.80;;;5.00;99.90;;;;;;5050230;28;20485;-59
2023/01/31 09:03:59;;;;;;;19.13;5.67;;;5.00;99.90;;;;;;5047368;28;20465;-59
2023/01/31 09:06:28;;;;;;;22.10;6.23;;;5.00;99.90;;;;;;5052559;28;20976;-59
2023/01/31 09:08:57;;;;;;;19.87;5.80;;;5.10;99.90;;;;;;5028993;28;20484;-60
2023/01/31 09:11:27;;;;;;;19.23;6.30;;;5.10;99.90;;;;;;5052298;28;20470;-60
2023/01/31 09:13:56;;;;;;;21.20;7.23;;;5.10;99.90;;;;;;5039366;28;20468;-60
2023/01/31 09:16:26;;;;;;;16.30;6.20;;;5.10;99.90;;;;;;5052591;28;20706;-59
2023/01/31 09:18:55;;;;;;;21.37;6.33;;;5.10;99.90;;;;;;5049015;28;20505;-59
2023/01/31 09:21:24;;;;;;;20.67;6.37;;;5.10;99.90;;;;;;5052452;28;20556;-59
2023/01/31 09:23:56;;;;;;;17.43;6.87;;;5.10;99.90;;;;;;5050238;28;20826;-59
2023/01/31 09:26:24;;;;;;;20.87;6.00;;;5.10;99.90;;;;;;5050730;28;20485;-60
2023/01/31 09:28:52;;;;;;;21.93;7.30;;;5.10;99.90;;;;;;5051534;28;20493;-59
2023/01/31 09:31:21;;;;;;;15.50;6.90;;;5.10;99.90;;;;;;5050363;28;20467;-59
2023/01/31 09:33:50;;;;;;;19.77;7.30;;;5.20;99.90;;;;;;5034959;28;20525;-60
2023/01/31 09:36:20;;;;;;;17.67;7.53;;;5.20;99.90;;;;;;5038277;28;20461;-60
2023/01/31 09:38:53;;;;;;;23.77;7.57;;;5.20;99.90;;;;;;5034936;28;20473;-60
2023/01/31 09:41:28;;;;;;;15.77;7.33;;;5.20;99.90;;;;;;5032509;28;20451;-60
2023/01/31 09:44:01;;;;;;;19.67;8.53;;;5.20;99.90;;;;;;5032715;28;20223;-59
2023/01/31 09:46:35;;;;;;;23.07;7.70;;;5.30;99.90;;;;;;5045768;28;20473;-60
2023/01/31 09:49:08;;;;;;;19.83;7.80;;;5.20;99.90;;;;;;5052401;28;21004;-60
2023/01/31 09:51:38;;;;;;;19.17;7.80;;;5.30;99.90;;;;;;5052173;28;20450;-59
2023/01/31 09:54:18;;;;;;;16.20;7.87;;;5.30;99.90;;;;;;5052477;28;20486;-60
2023/01/31 09:56:54;;;;;;;24.07;8.47;;;5.30;99.90;;;;;;5049782;28;20613;-59
2023/01/31 09:59:25;;;;;;;22.20;8.60;;;5.30;99.90;;;;;;5012594;28;20220;-60
2023/01/31 10:01:59;;;;;;;22.70;8.57;;;5.30;99.90;;;;;;5023636;28;20475;-59
2023/01/31 10:04:44;;;;;;;21.07;8.83;;;5.40;99.90;;;;;;5026371;28;20478;-60
2023/01/31 10:07:16;;;;;;;20.30;9.27;;;5.40;99.90;;;;;;5030299;28;20832;-60
2023/01/31 10:09:49;;;;;;;23.73;8.90;;;5.40;99.90;;;;;;5052135;28;20505;-60
2023/01/31 10:12:23;;;;;;;19.70;9.03;;;5.40;99.90;;;;;;5044668;28;20217;-60
2023/01/31 10:14:54;;;;;;;18.87;8.83;;;5.40;99.90;;;;;;5023814;28;21004;-60
2023/01/31 10:17:26;;;;;;;23.73;8.93;;;5.40;99.90;;;;;;5029791;28;20466;-59
2023/01/31 10:20:00;;;;;;;19.63;8.70;;;5.40;99.90;;;;;;5052140;28;20630;-60
2023/01/31 10:22:34;;;;;;;17.97;8.30;;;5.50;99.90;;;;;;5037271;28;20466;-60
2023/01/31 10:25:23;;;;;;;21.27;8.13;;;5.50;99.90;;;;;;5032034;28;20475;-59
2023/01/31 10:27:56;;;;;;;16.47;8.00;;;5.50;99.90;;;;;;5030815;28;20619;-59
2023/01/31 10:30:29;;;;;;;16.90;8.40;;;5.50;99.90;;;;;;5012048;28;20488;-60
2023/01/31 10:33:03;;;;;;;20.17;8.83;;;5.60;99.90;;;;;;5030390;28;20231;-60
2023/01/31 10:35:39;;;;;;;19.70;7.57;;;5.50;99.90;;;;;;5040181;28;20466;-60
2023/01/31 10:38:16;;;;;;;18.20;7.53;;;5.60;99.90;;;;;;5047233;28;20466;-59
2023/01/31 10:40:47;;;;;;;21.33;8.63;;;5.60;99.90;;;;;;5015638;28;20967;-60
2023/01/31 10:43:18;;;;;;;20.03;9.17;;;5.60;99.90;;;;;;5015892;28;20481;-60
2023/01/31 10:45:47;;;;;;;17.17;8.20;;;5.60;99.90;;;;;;5015354;28;20236;-59
2023/01/31 10:48:18;;;;;;;23.00;8.27;;;5.60;99.90;;;;;;5015563;28;20522;-60
2023/01/31 10:51:00;;;;;;;17.93;7.87;;;5.70;99.90;;;;;;5015263;28;20217;-60
2023/01/31 10:53:54;;;;;;;20.30;7.50;;;5.70;99.90;;;;;;5015248;28;20459;-60
2023/01/31 10:56:29;;;;;;;21.27;7.40;;;5.70;99.90;;;;;;5041892;28;20972;-60
2023/01/31 10:58:59;;;;;;;20.50;7.50;;;5.70;99.90;;;;;;5054893;28;20227;-60
2023/01/31 11:01:28;;;;;;;20.30;7.63;;;5.70;99.90;;;;;;5046554;28;20259;-60
2023/01/31 11:03:59;;;;;;;16.10;7.87;;;5.70;99.90;;;;;;5034937;28;20482;-60
2023/01/31 11:06:28;;;;;;;20.13;7.73;;;5.80;99.90;;;;;;5046673;28;20228;-60
2023/01/31 11:08:59;;;;;;;15.13;6.80;;;5.80;99.90;;;;;;5052967;28;20228;-59
2023/01/31 11:11:29;;;;;;;15.47;7.83;;;5.80;99.90;;;;;;5054705;28;20239;-59
2023/01/31 11:13:59;;;;;;;18.23;6.97;;;5.80;99.90;;;;;;5044313;28;20228;-60
2023/01/31 11:16:29;;;;;;;15.63;6.63;;;5.90;99.90;;;;;;5043438;28;20243;-60
2023/01/31 11:18:59;;;;;;;17.13;6.60;;;5.90;99.90;;;;;;5054796;28;20251;-59
2023/01/31 11:21:32;;;;;;;15.00;6.60;;;6.00;99.90;;;;;;5054671;28;20734;-60
2023/01/31 11:24:04;;;;;;;16.07;6.47;;;6.00;99.90;;;;;;5054884;28;20281;-59
2023/01/31 11:26:34;;;;;;;20.63;6.53;;;6.00;99.90;;;;;;5054624;28;20227;-60
2023/01/31 11:29:08;;;;;;;14.00;5.67;;;6.00;99.90;;;;;;5054689;28;20239;-60
2023/01/31 11:31:41;;;;;;;16.47;6.13;;;6.00;99.90;;;;;;5045285;28;20715;-59
2023/01/31 11:34:19;;;;;;;14.03;6.03;;;6.10;99.90;;;;;;5026256;28;20229;-60
2023/01/31 11:36:49;;;;;;;14.53;5.37;;;6.10;99.90;;;;;;5035295;28;20234;-59
2023/01/31 11:39:30;;;;;;;14.70;5.63;;;6.10;99.90;;;;;;5042184;28;20475;-59
2023/01/31 11:42:06;;;;;;;10.70;5.47;;;6.10;99.90;;;;;;5034580;28;20605;-59
2023/01/31 11:44:34;;;;;;;10.57;4.47;;;6.10;99.90;;;;;;5034024;28;20225;-59
2023/01/31 11:47:06;;;;;;;10.57;4.13;;;6.10;99.90;;;;;;5031725;28;20711;-60
2023/01/31 11:49:38;;;;;;;13.43;4.73;;;6.10;99.90;;;;;;5024724;28;20216;-61
2023/01/31 11:52:15;;;;;;;8.63;3.83;;;6.10;99.90;;;;;;5028890;28;20224;-60
2023/01/31 11:54:47;;;;;;;11.60;3.97;;;6.10;99.90;;;;;;5029755;28;20246;-59
2023/01/31 11:57:17;;;;;;;7.87;4.37;;;6.20;99.90;;;;;;5031272;28;20228;-60
2023/01/31 11:59:48;;;;;;;9.83;3.80;;;6.20;99.90;;;;;;5029334;28;20224;-60
2023/01/31 12:02:27;;;;;;;7.37;3.33;;;6.20;99.90;;;;;;5030316;28;20589;-59
2023/01/31 12:04:55;;;;;;;4.77;2.77;;;6.30;99.90;;;;;;5029660;28;20260;-59
2023/01/31 12:07:29;;;;;;;8.57;3.47;;;6.30;99.90;;;;;;5030805;28;20230;-61
2023/01/31 12:09:57;;;;;;;7.87;3.13;;;6.30;99.90;;;;;;5028685;28;20347;-60
2023/01/31 12:12:32;;;;;;;6.83;3.00;;;6.30;99.90;;;;;;5029618;28;20237;-59
2023/01/31 12:15:01;;;;;;;5.27;2.80;;;6.30;99.90;;;;;;5029825;28;20715;-60
2023/01/31 12:17:34;;;;;;;5.70;2.90;;;6.30;99.90;;;;;;5028922;28;20584;-59
2023/01/31 12:20:14;;;;;;;4.53;2.40;;;6.30;99.90;;;;;;5029419;28;20730;-60
2023/01/31 12:23:04;;;;;;;4.80;2.30;;;6.30;99.90;;;;;;5032711;28;20221;-59
2023/01/31 12:25:49;;;;;;;4.77;2.43;;;6.40;99.90;;;;;;5033434;28;20236;-60
2023/01/31 12:28:31;;;;;;;7.30;2.43;;;6.40;99.90;;;;;;5013740;28;20716;-59
2023/01/31 12:31:28;;;;;;;4.17;2.60;;;6.40;99.90;;;;;;5017204;28;20721;-60
2023/01/31 12:34:10;;;;;;;4.33;2.07;;;6.40;99.90;;;;;;5031384;28;20795;-59
2023/01/31 12:36:53;;;;;;;5.23;2.10;;;6.50;99.90;;;;;;5050591;28;20636;-60
2023/01/31 12:39:41;;;;;;;7.83;2.00;;;6.50;99.90;;;;;;5013367;28;20231;-59
2023/01/31 12:42:35;;;;;;;5.47;2.10;;;6.50;99.90;;;;;;5013730;28;20256;-59
2023/01/31 12:45:18;;;;;;;3.67;1.90;;;6.50;99.90;;;;;;5013743;28;20236;-60
2023/01/31 12:48:28;;;;;;;2.73;1.77;;;6.50;99.90;;;;;;5013478;28;20237;-60
2023/01/31 12:51:05;;;;;;;3.73;1.50;;;6.50;99.90;;;;;;5033009;28;20232;-59
2023/01/31 12:53:53;;;;;;;2.40;1.40;;;6.60;99.90;;;;;;5052576;28;20232;-60
2023/01/31 12:56:41;;;;;;;5.87;1.67;;;6.60;99.90;;;;;;5053115;28;20698;-57
2023/01/31 12:59:22;;;;;;;2.93;1.47;;;6.60;99.90;;;;;;5052233;28;20228;-57
2023/01/31 13:01:57;;;;;;;5.20;1.90;;;6.60;99.90;;;;;;5040422;28;20283;-58
2023/01/31 13:04:36;;;;;;;3.00;1.60;;;6.70;99.90;;;;;;5048953;28;20314;-58
2023/01/31 13:07:09;;;;;;;2.83;1.70;;;6.70;99.90;;;;;;5044235;28;20235;-57
2023/01/31 13:09:37;;;;;;;5.87;1.80;;;6.80;99.90;;;;;;5052707;28;20246;-58
2023/01/31 13:12:13;;;;;;;6.37;2.07;;;6.70;99.90;;;;;;5052942;28;20235;-57
2023/01/31 13:14:44;;;;;;;7.33;2.37;;;6.70;99.90;;;;;;5052734;28;20238;-57
2023/01/31 13:17:17;;;;;;;9.37;2.30;;;6.70;99.90;;;;;;5052534;28;20231;-57